LIMJ/GOA METAR and TAF weather

Enter ICAO airport designator
Station Type Date Time Source
LIMJ METAR 2019/07/15 20:20 UTC NOAA

LIMJ 152020Z 35004KT 290V100 9999 SCT030 22/14 Q1012


Station Type Date Time Source
LIMJ Decoded METAR 2019/07/15 20:20 UTC NOAA

Genova / Sestri, Italy (LIMJ) 44-25N 008-51E 3M
Jul 15, 2019 - 04:20 PM EDT / 2019.07.15 2020 UTC
Wind: from the N (350 degrees) at 5 MPH (4 KT) (direction variable):0
Visibility: greater than 7 mile(s):0
Sky conditions: partly cloudy
Temperature: 71 F (22 C)
Dew Point: 57 F (14 C)
Relative Humidity: 60%
Pressure (altimeter): 29.88 in. Hg (1012 hPa)
ob: LIMJ 152020Z 35004KT 290V100 9999 SCT030 22/14 Q1012
cycle: 20

Station Type Date Time Source
LIMJ TAF 2019/07/15 18:21 UTC NOAA

TAF LIMJ 151700Z 1518/1618 03012KT 9999 SCT030 SCT060
TEMPO 1518/1524 03015G25KT
BECMG 1608/1610 22010KT

Example: see airport list